Time;durP1;ratioP1;P1;durP2;ratioP2;P2;SDS_P1;SDS_P2;PMS_P1;PMS_P2;Temp;Humidity;BMP_temperature;BMP_pressure;BME280_temperature;BME280_humidity;BME280_pressure;Samples;Min_cycle;Max_cycle;Signal;HPM_P1;HPM_P2
2022/11/21 00:01:33;;;;;;;17.55;3.90;;;6.50;99.90;;;;;;4977934;28;20030;-68
2022/11/21 00:03:58;;;;;;;15.35;3.30;;;6.50;99.90;;;;;;4976906;28;20035;-68
2022/11/21 00:06:24;;;;;;;17.25;3.55;;;6.50;99.90;;;;;;4975464;28;20105;-67
2022/11/21 00:08:50;;;;;;;24.35;4.20;;;6.50;99.90;;;;;;4983794;28;20022;-68
2022/11/21 00:11:16;;;;;;;18.98;4.00;;;6.50;99.90;;;;;;4983907;28;20038;-67
2022/11/21 00:13:41;;;;;;;20.75;4.50;;;6.50;99.90;;;;;;4999648;28;20022;-67
2022/11/21 00:16:10;;;;;;;24.80;4.47;;;6.50;99.90;;;;;;4979718;28;20035;-67
2022/11/21 00:18:36;;;;;;;26.77;4.38;;;6.50;99.90;;;;;;4974343;28;20034;-67
2022/11/21 00:21:06;;;;;;;19.50;4.07;;;6.50;99.90;;;;;;4985399;28;20022;-66
2022/11/21 00:23:32;;;;;;;17.40;3.33;;;6.60;99.90;;;;;;4980979;28;20157;-67
2022/11/21 00:25:58;;;;;;;17.60;3.60;;;6.60;99.90;;;;;;4978615;28;20511;-67
2022/11/21 00:28:23;;;;;;;19.98;4.80;;;6.60;99.90;;;;;;4977002;28;20117;-67
2022/11/21 00:30:49;;;;;;;13.48;3.08;;;6.60;99.90;;;;;;4979227;28;20011;-67
2022/11/21 00:33:14;;;;;;;14.63;3.38;;;6.60;99.90;;;;;;4970898;28;20062;-67
2022/11/21 00:35:40;;;;;;;14.43;3.30;;;6.60;99.90;;;;;;4977325;28;20019;-67
2022/11/21 00:38:05;;;;;;;14.43;3.00;;;6.50;99.90;;;;;;4976500;28;20121;-67
2022/11/21 00:40:31;;;;;;;14.73;2.92;;;6.50;99.90;;;;;;4973581;28;20098;-67
2022/11/21 00:42:56;;;;;;;19.40;3.10;;;6.50;99.90;;;;;;4973839;28;20031;-67
2022/11/21 00:45:22;;;;;;;20.42;3.72;;;6.40;99.90;;;;;;4979187;28;20042;-67
2022/11/21 00:47:47;;;;;;;18.20;4.25;;;6.40;99.90;;;;;;4962147;28;20054;-67
2022/11/21 00:50:13;;;;;;;17.90;4.57;;;6.40;99.90;;;;;;4981507;28;20041;-68
2022/11/21 00:52:39;;;;;;;17.00;3.75;;;6.40;99.90;;;;;;4974967;28;20032;-67
2022/11/21 00:55:04;;;;;;;12.10;3.00;;;6.40;99.90;;;;;;4980702;28;20022;-67
2022/11/21 00:57:30;;;;;;;14.77;3.28;;;6.40;99.90;;;;;;4977388;28;20019;-67
2022/11/21 00:59:55;;;;;;;17.58;3.63;;;6.40;99.90;;;;;;4974736;28;20627;-67
2022/11/21 01:02:21;;;;;;;21.75;4.35;;;6.50;99.90;;;;;;4972904;28;20054;-67
2022/11/21 01:04:47;;;;;;;20.63;3.28;;;6.40;99.90;;;;;;4981225;28;20034;-68
2022/11/21 01:07:13;;;;;;;19.95;3.42;;;6.50;99.90;;;;;;4987956;28;20061;-67
2022/11/21 01:09:39;;;;;;;14.45;3.65;;;6.50;99.90;;;;;;4995784;28;20022;-67
2022/11/21 01:12:05;;;;;;;17.30;4.00;;;6.50;99.90;;;;;;4984745;28;20802;-67
2022/11/21 01:14:30;;;;;;;18.17;3.58;;;6.50;99.90;;;;;;4983750;28;20038;-68
2022/11/21 01:16:56;;;;;;;13.02;3.45;;;6.50;99.90;;;;;;4991475;28;20029;-67
2022/11/21 01:19:21;;;;;;;22.80;4.95;;;6.50;99.90;;;;;;4983856;28;20061;-68
2022/11/21 01:21:47;;;;;;;24.80;3.65;;;6.50;99.90;;;;;;4982055;28;20519;-67
2022/11/21 01:24:13;;;;;;;12.48;2.75;;;6.50;99.90;;;;;;4974895;28;20034;-68
2022/11/21 01:26:39;;;;;;;23.80;3.75;;;6.50;99.90;;;;;;4986671;28;20042;-67
2022/11/21 01:29:05;;;;;;;18.13;3.50;;;6.50;99.90;;;;;;4980436;28;20106;-68
2022/11/21 01:31:31;;;;;;;9.38;3.88;;;6.50;99.90;;;;;;4983643;28;20018;-67
2022/11/21 01:33:58;;;;;;;15.95;3.28;;;6.50;99.90;;;;;;4980007;28;20084;-67
2022/11/21 01:36:26;;;;;;;17.88;4.13;;;6.50;99.90;;;;;;4984263;28;20508;-67
2022/11/21 01:38:54;;;;;;;20.58;3.95;;;6.50;99.90;;;;;;4973365;28;20027;-68
2022/11/21 01:41:23;;;;;;;15.23;4.72;;;6.50;99.90;;;;;;4974769;28;20034;-67
2022/11/21 01:43:49;;;;;;;22.42;5.40;;;6.40;99.90;;;;;;4987011;28;20057;-68
2022/11/21 01:46:17;;;;;;;10.18;3.20;;;6.50;99.90;;;;;;4989028;28;20492;-67
2022/11/21 01:48:57;;;;;;;24.08;4.70;;;6.40;99.90;;;;;;4969733;28;20038;-68
2022/11/21 01:51:33;;;;;;;22.23;5.25;;;6.40;99.90;;;;;;4979376;28;20042;-68
2022/11/21 01:54:05;;;;;;;11.68;4.13;;;6.50;99.90;;;;;;4981641;28;20521;-67
2022/11/21 01:56:54;;;;;;;15.32;4.35;;;6.40;99.90;;;;;;4981177;28;20057;-68
2022/11/21 01:59:33;;;;;;;18.33;4.25;;;6.50;99.90;;;;;;4980347;28;20039;-68
2022/11/21 02:02:02;;;;;;;21.33;4.15;;;6.40;99.90;;;;;;4986791;28;20031;-68
2022/11/21 02:04:31;;;;;;;20.83;4.20;;;6.40;99.90;;;;;;4987340;28;20065;-68
2022/11/21 02:06:59;;;;;;;19.92;3.88;;;6.40;99.90;;;;;;4984403;28;20113;-67
2022/11/21 02:09:25;;;;;;;16.83;5.45;;;6.40;99.90;;;;;;4985651;28;20066;-67
2022/11/21 02:11:55;;;;;;;15.18;3.35;;;6.40;99.90;;;;;;4979661;28;20053;-67
2022/11/21 02:14:20;;;;;;;14.88;3.53;;;6.40;99.90;;;;;;4982997;28;20489;-68
2022/11/21 02:16:46;;;;;;;18.35;4.63;;;6.40;99.90;;;;;;4979521;28;20031;-67
2022/11/21 02:19:25;;;;;;;14.35;3.90;;;6.40;99.90;;;;;;4982499;28;20081;-67
2022/11/21 02:22:03;;;;;;;21.50;4.22;;;6.40;99.90;;;;;;4976868;28;20019;-68
2022/11/21 02:24:38;;;;;;;12.85;3.80;;;6.40;99.90;;;;;;4988751;28;20530;-67
2022/11/21 02:27:04;;;;;;;12.90;3.90;;;6.40;99.90;;;;;;4987955;28;20037;-67
2022/11/21 02:29:30;;;;;;;15.20;3.25;;;6.40;99.90;;;;;;4982247;28;20396;-67
2022/11/21 02:32:01;;;;;;;15.30;3.45;;;6.40;99.90;;;;;;4982431;28;20062;-68
2022/11/21 02:34:27;;;;;;;16.73;4.65;;;6.40;99.90;;;;;;4982531;28;20445;-68
2022/11/21 02:36:53;;;;;;;17.00;4.18;;;6.40;99.90;;;;;;4977872;28;20050;-67
2022/11/21 02:39:22;;;;;;;17.25;4.40;;;6.40;99.90;;;;;;4974641;28;20086;-67
2022/11/21 02:41:58;;;;;;;16.60;3.95;;;6.40;99.90;;;;;;4972794;28;20034;-67
2022/11/21 02:44:52;;;;;;;19.08;5.75;;;6.30;99.90;;;;;;4986231;28;20037;-68
2022/11/21 02:47:21;;;;;;;17.90;4.20;;;6.30;99.90;;;;;;4978133;28;21988;-68
2022/11/21 02:50:14;;;;;;;22.00;3.72;;;6.40;99.90;;;;;;4960712;28;20050;-67
2022/11/21 02:52:39;;;;;;;15.82;3.38;;;6.40;99.90;;;;;;4978296;28;20519;-67
2022/11/21 02:55:06;;;;;;;15.30;3.05;;;6.30;99.90;;;;;;4978739;28;20022;-67
2022/11/21 02:57:31;;;;;;;17.80;3.75;;;6.30;99.90;;;;;;4974542;28;20054;-67
2022/11/21 02:59:57;;;;;;;11.18;3.60;;;6.30;99.90;;;;;;4985157;28;20065;-67
2022/11/21 03:02:22;;;;;;;12.27;3.28;;;6.30;99.90;;;;;;4977269;28;20113;-66
2022/11/21 03:04:48;;;;;;;22.15;3.88;;;6.30;99.90;;;;;;4977633;28;20030;-66
2022/11/21 03:07:14;;;;;;;18.15;3.88;;;6.30;99.90;;;;;;4988899;28;20029;-67
2022/11/21 03:09:39;;;;;;;23.17;3.60;;;6.30;99.90;;;;;;4977454;28;20028;-66
2022/11/21 03:12:06;;;;;;;16.88;3.42;;;6.30;99.90;;;;;;4982000;28;20058;-66
2022/11/21 03:14:35;;;;;;;10.45;3.10;;;6.30;99.90;;;;;;4990485;28;20069;-66
2022/11/21 03:17:02;;;;;;;16.80;3.55;;;6.30;99.90;;;;;;4983579;28;20045;-66
2022/11/21 03:19:27;;;;;;;14.65;3.22;;;6.30;99.90;;;;;;4987333;28;20042;-66
2022/11/21 03:21:53;;;;;;;13.70;3.50;;;6.30;99.90;;;;;;4985105;28;20420;-67
2022/11/21 03:24:18;;;;;;;16.38;3.72;;;6.30;99.90;;;;;;4983670;28;20038;-67
2022/11/21 03:26:44;;;;;;;14.07;3.17;;;6.30;99.90;;;;;;4979397;28;20022;-66
2022/11/21 03:29:10;;;;;;;17.02;3.20;;;6.30;99.90;;;;;;4984276;28;20030;-67
2022/11/21 03:31:35;;;;;;;23.52;3.40;;;6.30;99.90;;;;;;4982187;28;20034;-67
2022/11/21 03:34:01;;;;;;;14.32;2.85;;;6.30;99.90;;;;;;4978109;28;20520;-67
2022/11/21 03:36:26;;;;;;;12.32;2.83;;;6.20;99.90;;;;;;4976578;28;20515;-67
2022/11/21 03:38:55;;;;;;;15.75;2.97;;;6.20;99.90;;;;;;4971872;28;20515;-66
2022/11/21 03:41:30;;;;;;;16.13;2.65;;;6.20;99.90;;;;;;4982251;28;20027;-67
2022/11/21 03:44:01;;;;;;;12.90;3.00;;;6.20;99.90;;;;;;4982041;28;20035;-67
2022/11/21 03:46:33;;;;;;;12.30;2.97;;;6.20;99.90;;;;;;4971103;28;20046;-67
2022/11/21 03:48:58;;;;;;;11.35;2.50;;;6.20;99.90;;;;;;4959468;28;20050;-67
2022/11/21 03:51:25;;;;;;;23.50;3.15;;;6.20;99.90;;;;;;4982717;28;20503;-67
2022/11/21 03:53:50;;;;;;;12.88;2.28;;;6.20;99.90;;;;;;4979820;28;20057;-67
2022/11/21 03:56:16;;;;;;;12.65;3.53;;;6.20;99.90;;;;;;4978290;28;20043;-67
2022/11/21 03:58:42;;;;;;;13.10;2.67;;;6.20;99.90;;;;;;4975126;28;20390;-67
2022/11/21 04:01:08;;;;;;;16.05;4.45;;;6.20;99.90;;;;;;4981623;28;20113;-67
2022/11/21 04:03:34;;;;;;;13.15;3.25;;;6.20;99.90;;;;;;4983189;28;20113;-67
2022/11/21 04:06:00;;;;;;;16.30;3.30;;;6.10;99.90;;;;;;4980297;28;20022;-67
2022/11/21 04:08:26;;;;;;;16.95;3.92;;;6.10;99.90;;;;;;4975505;28;20039;-67
2022/11/21 04:10:53;;;;;;;21.67;4.43;;;6.10;99.90;;;;;;4979954;28;20066;-67
2022/11/21 04:13:19;;;;;;;10.50;2.83;;;6.10;99.90;;;;;;4972495;28;20370;-67
2022/11/21 04:15:45;;;;;;;13.65;3.47;;;6.10;99.90;;;;;;4986857;28;20038;-67
2022/11/21 04:18:12;;;;;;;11.43;3.10;;;6.10;99.90;;;;;;4982323;28;20034;-67
2022/11/21 04:20:37;;;;;;;16.30;3.03;;;6.10;99.90;;;;;;4978843;28;20035;-67
2022/11/21 04:23:04;;;;;;;18.73;4.05;;;6.10;99.90;;;;;;4972360;28;20039;-66
2022/11/21 04:25:29;;;;;;;9.82;2.67;;;6.00;99.90;;;;;;4971537;28;20027;-67
2022/11/21 04:27:56;;;;;;;19.40;4.03;;;6.00;99.90;;;;;;4978508;28;20523;-67
2022/11/21 04:30:22;;;;;;;9.10;2.92;;;6.00;99.90;;;;;;4972690;28;20027;-67
2022/11/21 04:32:50;;;;;;;8.63;3.03;;;6.00;99.90;;;;;;4979155;28;20810;-67
2022/11/21 04:35:15;;;;;;;12.35;3.00;;;6.10;99.90;;;;;;4973481;28;20023;-66
2022/11/21 04:37:41;;;;;;;15.52;2.95;;;6.10;99.90;;;;;;4982993;28;20038;-66
2022/11/21 04:40:07;;;;;;;7.13;3.03;;;6.00;99.90;;;;;;4989807;28;20030;-66
2022/11/21 04:42:32;;;;;;;12.35;2.97;;;6.00;99.90;;;;;;4990140;28;20055;-67
2022/11/21 04:44:58;;;;;;;8.35;2.85;;;6.00;99.90;;;;;;4981121;28;20466;-67
2022/11/21 04:47:23;;;;;;;12.27;3.63;;;6.00;99.90;;;;;;4987218;28;20411;-67
2022/11/21 04:49:49;;;;;;;10.05;3.05;;;6.00;99.90;;;;;;4966993;28;20478;-67
2022/11/21 04:52:14;;;;;;;11.35;2.63;;;6.00;99.90;;;;;;4985673;28;20146;-67
2022/11/21 04:54:40;;;;;;;7.65;2.70;;;6.00;99.90;;;;;;4979576;28;20053;-67
2022/11/21 04:57:06;;;;;;;11.55;2.97;;;6.00;99.90;;;;;;4983662;28;20033;-67
2022/11/21 04:59:31;;;;;;;12.02;3.83;;;6.00;99.90;;;;;;4982864;28;20038;-67
2022/11/21 05:01:57;;;;;;;6.97;3.53;;;6.00;99.90;;;;;;4986282;28;20030;-66
2022/11/21 05:04:22;;;;;;;11.60;3.63;;;6.00;99.90;;;;;;4982405;28;20022;-67
2022/11/21 05:06:48;;;;;;;13.05;4.78;;;6.00;99.90;;;;;;4985016;28;20088;-67
2022/11/21 05:09:13;;;;;;;14.40;5.10;;;6.00;99.90;;;;;;4980397;28;20030;-66
2022/11/21 05:14:25;;;;;;;22.05;6.10;;;6.00;99.90;;;;;;4980187;28;20114;-67
2022/11/21 05:16:51;;;;;;;16.40;5.47;;;6.00;99.90;;;;;;4974335;28;20097;-67
2022/11/21 05:19:16;;;;;;;19.02;6.85;;;5.90;99.90;;;;;;4981319;28;20027;-67
2022/11/21 05:21:42;;;;;;;11.10;5.05;;;5.90;99.90;;;;;;4986465;28;20025;-67
2022/11/21 05:24:07;;;;;;;17.92;6.28;;;5.90;99.90;;;;;;4989540;28;20030;-67
2022/11/21 05:26:33;;;;;;;13.82;5.55;;;5.90;99.90;;;;;;4984019;28;20097;-67
2022/11/21 05:28:59;;;;;;;18.60;5.22;;;5.90;99.90;;;;;;4983009;28;20030;-67
2022/11/21 05:31:24;;;;;;;18.48;5.05;;;5.90;99.90;;;;;;4992674;28;20479;-67
2022/11/21 05:33:50;;;;;;;21.10;5.07;;;5.90;99.90;;;;;;4981536;28;20026;-67
2022/11/21 05:36:15;;;;;;;10.85;5.38;;;5.90;99.90;;;;;;4991499;28;20038;-67
2022/11/21 05:38:41;;;;;;;12.15;4.93;;;6.00;99.90;;;;;;4982235;28;20058;-66
2022/11/21 05:41:07;;;;;;;23.00;6.78;;;6.00;99.90;;;;;;4978584;28;20061;-66
2022/11/21 05:43:45;;;;;;;14.70;5.60;;;6.00;99.90;;;;;;4977291;28;20026;-67
2022/11/21 05:46:11;;;;;;;15.95;5.95;;;5.90;99.90;;;;;;4985217;28;20026;-67
2022/11/21 05:48:37;;;;;;;23.80;7.38;;;6.00;99.90;;;;;;4968516;28;20042;-67
2022/11/21 05:51:03;;;;;;;14.65;5.70;;;6.00;99.90;;;;;;4982630;28;20052;-66
2022/11/21 05:53:29;;;;;;;14.77;7.63;;;6.00;99.90;;;;;;4976818;28;20038;-67
2022/11/21 05:55:54;;;;;;;16.15;6.93;;;6.00;99.90;;;;;;4981987;28;20033;-67
2022/11/21 05:58:20;;;;;;;13.20;5.60;;;6.00;99.90;;;;;;4984404;28;20413;-67
2022/11/21 06:00:46;;;;;;;18.67;5.95;;;6.00;99.90;;;;;;4978356;28;20438;-67
2022/11/21 06:03:27;;;;;;;19.55;8.07;;;6.00;99.90;;;;;;4979841;28;20101;-67
2022/11/21 06:06:15;;;;;;;15.63;7.28;;;6.00;99.90;;;;;;4983171;28;20026;-67
2022/11/21 06:08:43;;;;;;;15.98;7.90;;;6.00;99.90;;;;;;4984710;28;20030;-67
2022/11/21 06:11:13;;;;;;;18.25;7.65;;;6.00;99.90;;;;;;4980104;28;20023;-67
2022/11/21 06:13:39;;;;;;;14.88;7.28;;;6.10;99.90;;;;;;4977639;28;20105;-67
2022/11/21 06:16:10;;;;;;;23.38;9.55;;;6.10;99.90;;;;;;4984237;28;20122;-67
2022/11/21 06:18:37;;;;;;;21.40;9.48;;;6.10;99.90;;;;;;4983470;28;20469;-68
2022/11/21 06:21:06;;;;;;;18.63;9.68;;;6.10;99.90;;;;;;4983893;28;20389;-66
2022/11/21 06:23:33;;;;;;;22.45;9.60;;;6.10;99.90;;;;;;4974974;28;20093;-67
2022/11/21 06:26:00;;;;;;;20.95;9.02;;;6.10;99.90;;;;;;4986464;28;20023;-66
2022/11/21 06:28:26;;;;;;;24.67;8.35;;;6.10;99.90;;;;;;4978803;28;20077;-66
2022/11/21 06:30:52;;;;;;;23.23;9.77;;;6.10;99.90;;;;;;4976540;28;20488;-66
2022/11/21 06:33:19;;;;;;;19.13;9.18;;;6.10;99.90;;;;;;4983331;28;20041;-67
2022/11/21 06:35:45;;;;;;;24.60;10.13;;;6.10;99.90;;;;;;4978868;28;20023;-66
2022/11/21 06:38:12;;;;;;;21.02;8.45;;;6.10;99.90;;;;;;4983023;28;20045;-67
2022/11/21 06:40:38;;;;;;;21.20;9.05;;;6.10;99.90;;;;;;4981264;28;20485;-68
2022/11/21 06:43:04;;;;;;;21.80;8.45;;;6.10;99.90;;;;;;4977171;28;20053;-67
2022/11/21 06:45:29;;;;;;;26.33;9.38;;;6.10;99.90;;;;;;4984206;28;20054;-67
2022/11/21 06:47:55;;;;;;;16.65;8.02;;;6.10;99.90;;;;;;4978418;28;20027;-67
2022/11/21 06:50:21;;;;;;;23.00;9.50;;;6.10;99.90;;;;;;4969735;28;20070;-67
2022/11/21 06:52:47;;;;;;;24.17;9.18;;;6.10;99.90;;;;;;4979067;28;20037;-66
2022/11/21 06:55:13;;;;;;;17.75;7.88;;;6.10;99.90;;;;;;4981484;28;20023;-67
2022/11/21 06:57:38;;;;;;;21.63;9.70;;;6.10;99.90;;;;;;4988747;28;20070;-67
2022/11/21 07:00:05;;;;;;;17.52;8.65;;;6.10;99.90;;;;;;4979530;28;20469;-66
2022/11/21 07:02:30;;;;;;;22.20;9.48;;;6.10;99.90;;;;;;4982438;28;20085;-67
2022/11/21 07:04:56;;;;;;;20.15;8.90;;;6.10;99.90;;;;;;4980821;28;20048;-67
2022/11/21 07:07:22;;;;;;;20.33;9.75;;;6.10;99.90;;;;;;4983664;28;20061;-67
2022/11/21 07:09:47;;;;;;;21.50;9.38;;;6.10;99.90;;;;;;4980243;28;20026;-67
2022/11/21 07:14:57;;;;;;;26.73;9.23;;;6.10;99.90;;;;;;4981048;28;20085;-67
2022/11/21 07:17:22;;;;;;;23.73;9.15;;;6.10;99.90;;;;;;4976446;28;20027;-67
2022/11/21 07:19:48;;;;;;;29.50;9.48;;;6.10;99.90;;;;;;4981143;28;20061;-69
2022/11/21 07:22:13;;;;;;;22.92;8.43;;;6.10;99.90;;;;;;4981124;28;20023;-67
2022/11/21 07:24:39;;;;;;;23.48;9.43;;;6.10;99.90;;;;;;4983421;28;20022;-67
2022/11/21 07:27:04;;;;;;;18.20;8.57;;;6.10;99.90;;;;;;4979290;28;20025;-67
2022/11/21 07:29:30;;;;;;;13.70;7.80;;;6.20;99.90;;;;;;4984280;28;20069;-66
2022/11/21 07:31:55;;;;;;;19.15;8.35;;;6.20;99.90;;;;;;4978221;28;20026;-67
2022/11/21 07:34:21;;;;;;;31.98;15.43;;;6.20;99.90;;;;;;4987887;28;20137;-67
2022/11/21 07:36:46;;;;;;;28.95;16.60;;;6.20;99.90;;;;;;4983641;28;20069;-67
2022/11/21 07:39:12;;;;;;;19.98;12.18;;;6.20;99.90;;;;;;4991078;28;20022;-67
2022/11/21 07:41:37;;;;;;;27.75;12.85;;;6.20;99.90;;;;;;4980838;28;20026;-68
2022/11/21 07:44:03;;;;;;;25.67;12.32;;;6.20;99.90;;;;;;4984903;28;20026;-67
2022/11/21 07:46:29;;;;;;;28.30;11.43;;;6.30;99.90;;;;;;4975265;28;20034;-67
2022/11/21 07:48:54;;;;;;;23.15;10.90;;;6.30;99.90;;;;;;4975858;28;20057;-67
2022/11/21 07:51:20;;;;;;;26.95;10.82;;;6.30;99.90;;;;;;4978785;28;20412;-67
2022/11/21 07:53:45;;;;;;;20.45;9.30;;;6.30;99.90;;;;;;4976450;28;20385;-67
2022/11/21 07:56:11;;;;;;;27.70;9.50;;;6.30;99.90;;;;;;4984364;28;20030;-67
2022/11/21 07:58:36;;;;;;;19.83;9.50;;;6.30;99.90;;;;;;4992578;28;20029;-66
2022/11/21 08:01:04;;;;;;;22.08;8.60;;;6.40;99.90;;;;;;4994595;28;20027;-66
2022/11/21 08:03:30;;;;;;;19.90;9.30;;;6.40;99.90;;;;;;4983773;28;20558;-66
2022/11/21 08:05:56;;;;;;;17.55;8.55;;;6.40;99.90;;;;;;4995722;28;20180;-67
2022/11/21 08:08:21;;;;;;;19.90;7.85;;;6.40;99.90;;;;;;4981272;28;20491;-67
2022/11/21 08:10:47;;;;;;;15.23;8.00;;;6.40;99.90;;;;;;4974181;28;20022;-69
2022/11/21 08:13:13;;;;;;;18.05;8.13;;;6.40;99.90;;;;;;4978481;28;20033;-67
2022/11/21 08:15:39;;;;;;;19.65;8.00;;;6.40;99.90;;;;;;4976686;28;20031;-67
2022/11/21 08:18:12;;;;;;;21.13;7.85;;;6.30;99.90;;;;;;4980410;28;20507;-67
2022/11/21 08:20:38;;;;;;;18.08;7.68;;;6.40;99.90;;;;;;4984120;28;20022;-67
2022/11/21 08:23:05;;;;;;;15.70;7.43;;;6.40;99.90;;;;;;4996373;28;20038;-69
2022/11/21 08:25:31;;;;;;;23.58;8.60;;;6.40;99.90;;;;;;4998136;28;20042;-67
2022/11/21 08:27:57;;;;;;;19.08;7.25;;;6.40;99.90;;;;;;5005928;28;20100;-69
2022/11/21 08:30:23;;;;;;;14.38;7.45;;;6.50;99.90;;;;;;4985659;28;20030;-67
2022/11/21 08:32:48;;;;;;;18.50;7.75;;;6.60;99.90;;;;;;4978230;28;20027;-67
2022/11/21 08:35:14;;;;;;;19.98;10.63;;;6.60;99.90;;;;;;4974875;28;20037;-69
2022/11/21 08:37:39;;;;;;;19.27;10.13;;;6.70;99.90;;;;;;4971101;28;20030;-67
2022/11/21 08:40:06;;;;;;;19.20;10.85;;;6.60;99.90;;;;;;4985582;28;20101;-67
2022/11/21 08:42:31;;;;;;;11.88;7.57;;;6.60;99.90;;;;;;4971834;28;20117;-68
2022/11/21 08:44:57;;;;;;;13.88;8.02;;;6.60;99.90;;;;;;4971129;28;20581;-66
2022/11/21 08:47:22;;;;;;;15.07;6.78;;;6.60;99.90;;;;;;4982272;28;20456;-67
2022/11/21 08:49:48;;;;;;;14.27;7.57;;;6.60;99.90;;;;;;4960853;28;20042;-68
2022/11/21 08:52:16;;;;;;;321.25;123.45;;;6.60;99.90;;;;;;4974841;28;20091;-67
2022/11/21 08:54:43;;;;;;;122.93;51.90;;;6.60;99.90;;;;;;4972733;28;20665;-67
2022/11/21 08:57:09;;;;;;;67.93;32.47;;;6.60;99.90;;;;;;4971725;28;20420;-67
2022/11/21 08:59:35;;;;;;;42.20;18.27;;;6.60;99.90;;;;;;4983382;28;20026;-67
2022/11/21 09:02:01;;;;;;;18.55;9.75;;;6.60;99.90;;;;;;4954083;28;20046;-67
2022/11/21 09:04:26;;;;;;;11.40;6.38;;;6.50;99.90;;;;;;4983998;28;20085;-67
2022/11/21 09:06:52;;;;;;;13.77;6.63;;;6.50;99.90;;;;;;4980920;28;20068;-67
2022/11/21 09:09:17;;;;;;;11.20;6.38;;;6.50;99.90;;;;;;4971273;28;20038;-68
2022/11/21 09:11:43;;;;;;;15.70;7.22;;;6.50;99.90;;;;;;4980506;28;20030;-68
2022/11/21 09:19:37;;;;;;;15.25;7.03;;;6.50;99.90;;;;;;4974530;28;20033;-67
2022/11/21 09:22:03;;;;;;;13.07;7.15;;;6.50;99.90;;;;;;4963331;28;20030;-67
2022/11/21 09:24:28;;;;;;;16.23;6.70;;;6.60;99.90;;;;;;4995516;28;20038;-68
2022/11/21 09:26:54;;;;;;;15.75;6.30;;;6.50;99.90;;;;;;5002678;28;20022;-68
2022/11/21 09:29:19;;;;;;;11.20;5.40;;;6.50;99.90;;;;;;5001417;28;20460;-67
2022/11/21 09:31:45;;;;;;;16.63;6.38;;;6.50;99.90;;;;;;4999536;28;20022;-67
2022/11/21 09:34:11;;;;;;;12.10;7.63;;;6.50;99.90;;;;;;4998793;28;20101;-67
2022/11/21 09:36:36;;;;;;;12.00;6.43;;;6.50;99.90;;;;;;4997071;28;20053;-67
2022/11/21 09:39:04;;;;;;;11.38;6.32;;;6.50;99.90;;;;;;4996773;28;20500;-67
2022/11/21 09:41:50;;;;;;;16.00;7.57;;;6.70;99.90;;;;;;5006706;28;20064;-68
2022/11/21 09:44:28;;;;;;;14.77;6.72;;;6.90;99.90;;;;;;5007550;28;20113;-67
2022/11/21 09:47:20;;;;;;;16.55;7.30;;;7.00;99.90;;;;;;5002788;28;20061;-68
2022/11/21 09:49:56;;;;;;;9.55;5.00;;;7.20;99.90;;;;;;4985436;28;20049;-68
2022/11/21 09:52:37;;;;;;;6.95;4.53;;;7.30;99.90;;;;;;5002300;28;20114;-68
2022/11/21 09:55:24;;;;;;;6.05;4.28;;;7.70;99.90;;;;;;4997055;28;20030;-67
2022/11/21 09:57:50;;;;;;;7.32;3.92;;;8.00;99.90;;;;;;5004695;28;20505;-67
2022/11/21 10:00:21;;;;;;;9.75;4.35;;;8.30;99.90;;;;;;4993404;28;20035;-67
2022/11/21 10:02:48;;;;;;;4.97;3.85;;;8.30;99.90;;;;;;5007736;28;20036;-68
2022/11/21 10:05:14;;;;;;;10.98;4.57;;;8.30;99.90;;;;;;4995734;28;20034;-67
2022/11/21 10:07:41;;;;;;;11.73;4.30;;;8.30;99.90;;;;;;4996553;28;20034;-68
2022/11/21 10:10:47;;;;;;;10.77;4.18;;;8.50;99.90;;;;;;5003450;28;20064;-67
2022/11/21 10:13:29;;;;;;;7.60;4.45;;;8.70;99.90;;;;;;5010060;28;20022;-68
2022/11/21 10:16:19;;;;;;;9.65;4.57;;;8.80;99.90;;;;;;4999326;28;20045;-67
2022/11/21 10:18:59;;;;;;;6.03;3.53;;;9.10;99.90;;;;;;4994758;28;20044;-67
2022/11/21 10:21:36;;;;;;;6.78;4.38;;;9.30;99.90;;;;;;4992317;28;20053;-68
2022/11/21 10:24:26;;;;;;;7.88;3.40;;;9.30;99.90;;;;;;4996817;28;20061;-68
2022/11/21 10:26:59;;;;;;;9.50;3.60;;;9.30;99.90;;;;;;4992450;28;20030;-68
2022/11/21 10:29:28;;;;;;;9.18;4.25;;;9.10;99.90;;;;;;5007609;28;20030;-68
2022/11/21 10:31:57;;;;;;;6.95;3.47;;;9.00;99.90;;;;;;4994087;28;20105;-68
2022/11/21 10:34:32;;;;;;;7.75;3.92;;;9.00;99.90;;;;;;5007584;28;20061;-68
2022/11/21 10:37:06;;;;;;;5.85;3.47;;;9.10;99.90;;;;;;4997611;28;20047;-68
2022/11/21 10:39:42;;;;;;;7.88;3.58;;;9.30;99.90;;;;;;4998053;28;20073;-67
2022/11/21 10:42:26;;;;;;;5.72;4.00;;;9.40;99.90;;;;;;5001663;28;20574;-68
2022/11/21 10:47:39;;;;;;;5.78;3.67;;;9.00;99.90;;;;;;4994175;28;20073;-67
2022/11/21 10:50:26;;;;;;;6.95;4.13;;;8.90;99.90;;;;;;4986609;28;20042;-68
2022/11/21 10:53:00;;;;;;;50.55;22.80;;;8.80;99.90;;;;;;5000322;28;20026;-68
2022/11/21 10:55:25;;;;;;;11.85;6.70;;;8.80;99.90;;;;;;5001937;28;20579;-68
2022/11/21 10:57:53;;;;;;;27.63;18.65;;;8.80;99.90;;;;;;5002627;28;20117;-68
2022/11/21 11:00:26;;;;;;;17.63;11.57;;;8.90;99.90;;;;;;4996886;28;20522;-68
2022/11/21 11:03:04;;;;;;;7.47;3.95;;;9.00;99.90;;;;;;5004495;28;20062;-67
2022/11/21 11:05:32;;;;;;;4.40;2.90;;;9.10;99.90;;;;;;5006632;28;20037;-67
2022/11/21 11:08:06;;;;;;;4.88;2.75;;;9.20;99.90;;;;;;5002665;28;20032;-68
2022/11/21 11:10:43;;;;;;;5.22;3.40;;;9.20;99.90;;;;;;5003726;28;20022;-67
2022/11/21 11:16:01;;;;;;;5.82;3.33;;;9.10;99.90;;;;;;5001199;28;20087;-67
2022/11/21 11:18:27;;;;;;;5.67;3.23;;;9.00;99.90;;;;;;4976222;28;20050;-68
2022/11/21 11:21:07;;;;;;;4.05;2.70;;;8.90;99.90;;;;;;4998868;28;20033;-68
2022/11/21 11:23:33;;;;;;;4.78;3.15;;;8.80;99.90;;;;;;5005386;28;20152;-68
2022/11/21 11:25:59;;;;;;;8.68;2.42;;;9.20;99.90;;;;;;5001943;28;20112;-67
2022/11/21 11:28:32;;;;;;;4.75;2.47;;;9.40;99.90;;;;;;4995072;28;20288;-68
2022/11/21 11:30:59;;;;;;;5.63;2.65;;;9.40;99.90;;;;;;4991560;28;20042;-67
2022/11/21 11:33:39;;;;;;;4.68;2.10;;;9.50;99.90;;;;;;5000815;28;20030;-67
2022/11/21 11:36:10;;;;;;;7.15;3.45;;;9.40;99.90;;;;;;5004134;28;20045;-68
2022/11/21 11:38:36;;;;;;;7.03;2.80;;;9.40;99.90;;;;;;5007738;28;20021;-68
2022/11/21 11:41:11;;;;;;;6.15;4.22;;;9.40;99.90;;;;;;4999578;28;20380;-67
2022/11/21 11:52:30;;;;;;;1.75;1.27;;;9.60;99.90;;;;;;4997781;28;20041;-68
2022/11/21 11:55:02;;;;;;;2.83;1.05;;;9.70;99.90;;;;;;4992379;28;20026;-68
2022/11/21 11:57:30;;;;;;;4.45;1.48;;;9.90;99.90;;;;;;4996253;28;20031;-67
2022/11/21 12:00:16;;;;;;;6.25;2.40;;;9.90;99.90;;;;;;5002351;28;20022;-68
2022/11/21 12:02:54;;;;;;;6.03;3.47;;;9.80;99.90;;;;;;4997707;28;20463;-67
2022/11/21 12:05:25;;;;;;;8.48;1.90;;;9.80;99.90;;;;;;4998087;28;20044;-68
2022/11/21 12:08:01;;;;;;;4.72;2.08;;;9.90;99.90;;;;;;4995640;28;20057;-68
2022/11/21 12:10:31;;;;;;;18.67;9.50;;;9.80;99.90;;;;;;5003759;28;20057;-67
2022/11/21 12:13:08;;;;;;;6.32;3.17;;;9.60;99.90;;;;;;5005195;28;20018;-67
2022/11/21 12:15:51;;;;;;;5.53;2.05;;;9.60;99.90;;;;;;5000170;28;20022;-67
2022/11/21 12:18:19;;;;;;;6.78;1.80;;;9.50;99.90;;;;;;4994348;28;20105;-67
2022/11/21 12:20:57;;;;;;;3.55;1.80;;;9.60;99.90;;;;;;5001471;28;20450;-68
2022/11/21 12:23:45;;;;;;;4.80;1.30;;;9.80;99.90;;;;;;4994231;28;20030;-67
2022/11/21 12:26:36;;;;;;;7.25;3.10;;;10.10;99.90;;;;;;4991808;28;20068;-67
2022/11/21 12:29:28;;;;;;;5.53;2.33;;;10.10;99.90;;;;;;4999731;28;20025;-68
2022/11/21 12:32:03;;;;;;;3.05;1.40;;;10.40;99.90;;;;;;5003973;28;20049;-68
2022/11/21 12:34:31;;;;;;;2.45;1.00;;;10.50;99.90;;;;;;5001171;28;20109;-67
2022/11/21 12:37:08;;;;;;;1.25;1.08;;;10.40;99.90;;;;;;4999620;28;20105;-67
2022/11/21 12:40:01;;;;;;;4.82;2.10;;;10.00;99.90;;;;;;4998357;28;20165;-67
2022/11/21 12:42:48;;;;;;;8.05;2.30;;;9.60;99.90;;;;;;5017385;28;20026;-68
2022/11/21 12:45:31;;;;;;;2.83;1.48;;;9.30;99.90;;;;;;5010646;28;20041;-68
2022/11/21 12:54:29;;;;;;;1.95;0.85;;;8.80;99.90;;;;;;4997747;28;20041;-68
2022/11/21 12:57:13;;;;;;;3.60;1.05;;;8.50;99.90;;;;;;5002716;28;20027;-68
2022/11/21 13:00:06;;;;;;;7.18;1.45;;;8.30;99.90;;;;;;5003196;28;20041;-68
2022/11/21 13:02:53;;;;;;;2.03;1.10;;;8.30;99.90;;;;;;4994816;28;20102;-68
2022/11/21 13:05:36;;;;;;;2.88;0.90;;;8.20;99.90;;;;;;4997431;28;20045;-69
2022/11/21 13:08:09;;;;;;;6.75;1.10;;;8.20;99.90;;;;;;5008340;28;20542;-68
2022/11/21 13:10:37;;;;;;;2.22;1.08;;;8.20;99.90;;;;;;5001287;28;20043;-68
2022/11/21 13:13:25;;;;;;;5.50;1.60;;;8.20;99.90;;;;;;5011378;28;20018;-68
2022/11/21 13:16:35;;;;;;;6.35;1.70;;;8.20;99.90;;;;;;5004038;28;20106;-68
2022/11/21 13:19:15;;;;;;;2.17;1.10;;;8.20;99.90;;;;;;4994900;28;20060;-68
2022/11/21 13:21:46;;;;;;;2.22;1.10;;;8.10;99.90;;;;;;4998922;28;20030;-68
2022/11/21 13:24:43;;;;;;;9.35;1.08;;;8.10;99.90;;;;;;4992754;28;20507;-68
2022/11/21 13:27:33;;;;;;;4.55;1.38;;;8.10;99.90;;;;;;4996513;28;20034;-68
2022/11/21 13:30:14;;;;;;;2.17;1.00;;;8.10;99.90;;;;;;5000893;28;20037;-67
2022/11/21 13:32:44;;;;;;;3.85;0.93;;;8.00;99.90;;;;;;5006920;28;20018;-67